createdAt,value
2022-10-18T00:18:48.571Z,17.98
2022-10-18T00:33:53.981Z,18.35
2022-10-18T00:48:58.661Z,18.58
2022-10-18T01:04:01.039Z,17.20
2022-10-18T01:19:30.485Z,17.08
2022-10-18T01:34:36.302Z,16.67
2022-10-18T01:49:38.222Z,14.70
2022-10-18T02:04:49.127Z,15.20
2022-10-18T02:19:54.328Z,14.02
2022-10-18T02:35:01.070Z,13.57
2022-10-18T02:50:02.972Z,12.60
2022-10-18T03:05:05.229Z,12.77
2022-10-18T03:20:07.750Z,13.00
2022-10-18T03:35:10.022Z,11.88
2022-10-18T03:50:11.954Z,12.43
2022-10-18T04:05:14.392Z,12.85
2022-10-18T04:20:16.739Z,12.75
2022-10-18T04:35:19.988Z,13.63
2022-10-18T04:50:21.859Z,13.48
2022-10-18T05:05:29.638Z,14.63
2022-10-18T05:20:35.032Z,14.73
2022-10-18T05:35:36.930Z,13.07
2022-10-18T05:50:40.366Z,13.32
2022-10-18T06:05:42.457Z,12.48
2022-10-18T06:20:44.381Z,13.63
2022-10-18T06:36:00.901Z,12.55
2022-10-18T06:51:04.963Z,11.80
2022-10-18T07:06:08.579Z,14.15
2022-10-18T07:21:13.762Z,13.93
2022-10-18T07:36:15.872Z,14.40
2022-10-18T07:51:19.342Z,14.93
2022-10-18T08:06:23.223Z,15.45
2022-10-18T08:21:25.310Z,16.08
2022-10-18T08:36:27.203Z,17.35
2022-10-18T08:51:45.482Z,19.23
2022-10-18T09:06:53.023Z,18.80
2022-10-18T09:22:01.954Z,19.52
2022-10-18T09:37:08.823Z,20.38
2022-10-18T09:52:19.062Z,21.58
2022-10-18T10:07:28.739Z,18.92
2022-10-18T10:22:38.527Z,24.30
2022-10-18T10:37:40.400Z,19.85
2022-10-18T10:52:47.890Z,24.17
2022-10-18T11:07:54.822Z,22.10
2022-10-18T11:22:56.693Z,21.17
2022-10-18T11:38:12.681Z,19.05
2022-10-18T11:53:29.944Z,20.95
2022-10-18T12:08:35.121Z,21.05
2022-10-18T12:23:51.383Z,20.27
2022-10-18T12:39:02.970Z,18.55
2022-10-18T12:54:17.023Z,26.13
2022-10-18T13:09:21.871Z,26.40
2022-10-18T13:24:44.851Z,30.55
2022-10-18T13:39:46.971Z,27.40
2022-10-18T13:55:37.482Z,34.42
2022-10-18T14:11:03.633Z,33.85
2022-10-18T14:26:21.262Z,33.53
2022-10-18T14:41:49.843Z,34.53
2022-10-18T15:12:13.162Z,33.10
2022-10-18T15:27:52.433Z,37.50
2022-10-18T15:43:06.063Z,37.13
2022-10-18T15:58:56.322Z,34.05
2022-10-18T16:14:00.693Z,10.00
2022-10-18T16:29:04.757Z,3.53
2022-10-18T16:44:06.790Z,3.33
2022-10-18T16:59:20.951Z,3.45
2022-10-18T17:14:22.881Z,3.63
2022-10-18T17:29:24.806Z,38.42
2022-10-18T17:44:26.763Z,6.13
2022-10-18T17:59:29.141Z,4.80
2022-10-18T18:14:31.413Z,9.10
2022-10-18T18:29:33.451Z,10.07
2022-10-18T18:44:35.674Z,9.55
2022-10-18T18:59:37.593Z,10.57
2022-10-18T19:14:39.664Z,10.35
2022-10-18T19:29:41.943Z,11.27
2022-10-18T19:44:44.024Z,11.65
2022-10-18T19:59:45.984Z,11.20
2022-10-18T20:14:47.942Z,10.73
2022-10-18T20:29:50.104Z,10.60
2022-10-18T20:44:52.177Z,11.20
2022-10-18T20:59:54.197Z,11.52
2022-10-18T21:14:56.137Z,13.27
2022-10-18T21:29:58.095Z,13.15
2022-10-18T21:45:00.057Z,15.20
2022-10-18T22:00:02.716Z,16.17
2022-10-18T22:15:05.015Z,16.88
2022-10-18T22:30:07.335Z,17.58
2022-10-18T22:45:09.497Z,14.05
2022-10-18T23:00:12.296Z,9.90
2022-10-18T23:15:14.295Z,7.05
2022-10-18T23:30:18.075Z,7.97
2022-10-18T23:45:20.035Z,8.15
